OMAHA61 KNIP-KACT
Flight info
| Callsign | OMAHA61 |
|---|---|
| Flight time | N/A |
| Altitude | 22000 |
| Route | MMOSS ZOOSS DEFUN J2 CEW J50 TORNN |
| Aircraft | B350/L-SBGRW/S |
Departure
| Time | 2026-05-09 15:15 |
|---|---|
| Airport | Jacksonville Naval Air Station (Towers Field) (KNIP) |
Arrival
| Time | N/A |
|---|---|
| Airport | Waco Regional Airport (KACT) |
| Time | Latitude | Longitude | Altitude | Speed | Heading |
|---|---|---|---|---|---|
| 2026-05-09 15:00 | 30.22930 | -81.67122 | 13 ft | 0 kts | 360° |
| 2026-05-09 15:08 | 30.22931 | -81.67122 | 13 ft | 0 kts | 359° |
| 2026-05-09 15:09 | 30.22945 | -81.67122 | 13 ft | 0 kts | 1° |
| 2026-05-09 15:10 | 30.23053 | -81.67722 | 17 ft | 19 kts | 269° |
| 2026-05-09 15:11 | 30.23051 | -81.67883 | 18 ft | 20 kts | 269° |
| 2026-05-09 15:11 | 30.23045 | -81.68044 | 20 ft | 20 kts | 266° |
| 2026-05-09 15:11 | 30.23040 | -81.68213 | 20 ft | 22 kts | 268° |
| 2026-05-09 15:11 | 30.23034 | -81.68386 | 21 ft | 18 kts | 268° |
| 2026-05-09 15:12 | 30.23029 | -81.68545 | 21 ft | 20 kts | 266° |
| 2026-05-09 15:12 | 30.23025 | -81.68720 | 21 ft | 22 kts | 270° |
| 2026-05-09 15:12 | 30.23025 | -81.68913 | 21 ft | 24 kts | 268° |
| 2026-05-09 15:12 | 30.23023 | -81.69105 | 21 ft | 23 kts | 268° |
| 2026-05-09 15:13 | 30.23026 | -81.69254 | 21 ft | 10 kts | 308° |
| 2026-05-09 15:13 | 30.23116 | -81.69269 | 20 ft | 14 kts | 358° |
| 2026-05-09 15:13 | 30.23160 | -81.69247 | 20 ft | 0 kts | 88° |
| 2026-05-09 15:14 | 30.23161 | -81.69109 | 21 ft | 66 kts | 90° |
| 2026-05-09 15:14 | 30.23163 | -81.68259 | 123 ft | 127 kts | 90° |
| 2026-05-09 15:14 | 30.23164 | -81.67734 | 471 ft | 128 kts | 91° |
| 2026-05-09 15:15 | 30.23165 | -81.66653 | 1021 ft | 144 kts | 89° |
| 2026-05-09 15:15 | 30.23217 | -81.65494 | 1691 ft | 150 kts | 82° |
| 2026-05-09 15:15 | 30.23721 | -81.64466 | 2337 ft | 152 kts | 38° |
| 2026-05-09 15:15 | 30.24658 | -81.64027 | 2978 ft | 147 kts | 352° |
| 2026-05-09 15:16 | 30.25536 | -81.64454 | 3612 ft | 137 kts | 308° |
| 2026-05-09 15:16 | 30.26002 | -81.65368 | 4266 ft | 134 kts | 289° |
| 2026-05-09 15:16 | 30.26332 | -81.66370 | 4884 ft | 140 kts | 286° |
| 2026-05-09 15:16 | 30.26663 | -81.67462 | 5461 ft | 150 kts | 287° |
| 2026-05-09 15:17 | 30.27031 | -81.68649 | 5912 ft | 167 kts | 288° |
| 2026-05-09 15:17 | 30.27443 | -81.69957 | 6309 ft | 184 kts | 288° |
| 2026-05-09 15:17 | 30.27896 | -81.71388 | 6830 ft | 192 kts | 289° |
| 2026-05-09 15:17 | 30.28351 | -81.72820 | 7479 ft | 191 kts | 289° |
| 2026-05-09 15:18 | 30.28803 | -81.74247 | 8118 ft | 190 kts | 289° |
| 2026-05-09 15:18 | 30.29258 | -81.75685 | 8714 ft | 191 kts | 289° |
| 2026-05-09 15:18 | 30.29710 | -81.77112 | 9279 ft | 192 kts | 289° |
| 2026-05-09 15:18 | 30.30171 | -81.78568 | 9809 ft | 194 kts | 289° |
| 2026-05-09 15:19 | 30.30630 | -81.80020 | 10338 ft | 194 kts | 289° |
| 2026-05-09 15:19 | 30.31093 | -81.81484 | 10852 ft | 195 kts | 288° |
| 2026-05-09 15:19 | 30.31556 | -81.82950 | 11348 ft | 196 kts | 288° |
| 2026-05-09 15:19 | 30.32022 | -81.84425 | 11812 ft | 197 kts | 287° |
| 2026-05-09 15:20 | 30.32492 | -81.85916 | 12271 ft | 198 kts | 287° |
| 2026-05-09 15:20 | 30.33442 | -81.88927 | 13158 ft | 200 kts | 286° |
| 2026-05-09 15:20 | 30.33922 | -81.90449 | 13582 ft | 200 kts | 285° |
| 2026-05-09 15:21 | 30.34400 | -81.91966 | 13999 ft | 200 kts | 285° |
| 2026-05-09 15:21 | 30.34883 | -81.93498 | 14420 ft | 200 kts | 285° |
| 2026-05-09 15:21 | 30.35362 | -81.95019 | 14843 ft | 199 kts | 285° |
| 2026-05-09 15:21 | 30.35838 | -81.96532 | 15247 ft | 198 kts | 285° |
| 2026-05-09 15:22 | 30.36307 | -81.98025 | 15623 ft | 197 kts | 285° |
| 2026-05-09 15:22 | 30.36776 | -81.99518 | 15985 ft | 197 kts | 285° |
| 2026-05-09 15:22 | 30.37242 | -82.01000 | 16347 ft | 197 kts | 285° |
| 2026-05-09 15:22 | 30.37709 | -82.02488 | 16695 ft | 196 kts | 285° |
| 2026-05-09 15:23 | 30.38176 | -82.03973 | 17019 ft | 196 kts | 285° |
| 2026-05-09 15:23 | 30.38640 | -82.05454 | 17306 ft | 197 kts | 285° |
| 2026-05-09 15:23 | 30.39104 | -82.06935 | 17577 ft | 198 kts | 285° |
| 2026-05-09 15:23 | 30.39569 | -82.08419 | 17860 ft | 197 kts | 285° |
| 2026-05-09 15:24 | 30.40040 | -82.09921 | 18154 ft | 198 kts | 285° |
| 2026-05-09 15:24 | 30.40513 | -82.11431 | 18401 ft | 199 kts | 285° |
| 2026-05-09 15:24 | 30.40981 | -82.12927 | 18661 ft | 200 kts | 285° |
| 2026-05-09 15:24 | 30.41452 | -82.14434 | 18912 ft | 200 kts | 285° |
| 2026-05-09 15:25 | 30.41915 | -82.15965 | 19162 ft | 200 kts | 282° |
| 2026-05-09 15:25 | 30.42156 | -82.17534 | 19387 ft | 198 kts | 272° |
| 2026-05-09 15:25 | 30.42274 | -82.19112 | 19632 ft | 198 kts | 274° |
| 2026-05-09 15:26 | 30.42591 | -82.22290 | 20095 ft | 198 kts | 274° |
| 2026-05-09 15:26 | 30.42740 | -82.23860 | 20305 ft | 199 kts | 274° |
| 2026-05-09 15:26 | 30.42891 | -82.25472 | 20491 ft | 201 kts | 274° |
| 2026-05-09 15:26 | 30.43037 | -82.27070 | 20693 ft | 201 kts | 273° |
| 2026-05-09 15:27 | 30.43184 | -82.28689 | 20896 ft | 201 kts | 274° |
| 2026-05-09 15:27 | 30.43328 | -82.30287 | 21075 ft | 202 kts | 273° |
| 2026-05-09 15:27 | 30.43474 | -82.31918 | 21238 ft | 204 kts | 274° |
| 2026-05-09 15:27 | 30.43621 | -82.33566 | 21441 ft | 204 kts | 273° |
| 2026-05-09 15:28 | 30.43765 | -82.35179 | 21612 ft | 204 kts | 273° |
| 2026-05-09 15:28 | 30.43909 | -82.36805 | 21796 ft | 204 kts | 273° |
| 2026-05-09 15:28 | 30.44054 | -82.38446 | 21938 ft | 206 kts | 274° |
| 2026-05-09 15:28 | 30.44203 | -82.40131 | 21972 ft | 212 kts | 273° |
| 2026-05-09 15:29 | 30.44355 | -82.41862 | 21979 ft | 219 kts | 273° |
| 2026-05-09 15:29 | 30.44511 | -82.43639 | 21981 ft | 225 kts | 274° |
| 2026-05-09 15:29 | 30.44672 | -82.45470 | 21982 ft | 231 kts | 274° |
| 2026-05-09 15:29 | 30.44834 | -82.47313 | 21977 ft | 236 kts | 273° |
| 2026-05-09 15:30 | 30.45001 | -82.49228 | 21977 ft | 240 kts | 274° |
| 2026-05-09 15:30 | 30.45172 | -82.51176 | 21976 ft | 244 kts | 274° |
| 2026-05-09 15:30 | 30.45344 | -82.53146 | 21978 ft | 248 kts | 273° |
| 2026-05-09 15:30 | 30.45518 | -82.55148 | 21979 ft | 251 kts | 274° |
| 2026-05-09 15:31 | 30.45693 | -82.57149 | 21977 ft | 254 kts | 274° |
| 2026-05-09 15:31 | 30.45871 | -82.59201 | 21974 ft | 256 kts | 274° |
| 2026-05-09 15:31 | 30.46049 | -82.61258 | 21973 ft | 259 kts | 274° |
| 2026-05-09 15:31 | 30.46231 | -82.63358 | 21973 ft | 260 kts | 274° |
| 2026-05-09 15:32 | 30.46413 | -82.65464 | 21977 ft | 262 kts | 273° |
| 2026-05-09 15:32 | 30.46597 | -82.67591 | 21988 ft | 264 kts | 273° |
| 2026-05-09 15:32 | 30.46781 | -82.69737 | 21983 ft | 266 kts | 273° |
| 2026-05-09 15:32 | 30.46964 | -82.71873 | 21985 ft | 267 kts | 274° |
| 2026-05-09 15:33 | 30.47149 | -82.74032 | 21981 ft | 268 kts | 274° |
| 2026-05-09 15:33 | 30.47336 | -82.76213 | 21982 ft | 269 kts | 274° |
| 2026-05-09 15:33 | 30.47522 | -82.78391 | 21983 ft | 270 kts | 274° |
| 2026-05-09 15:33 | 30.47707 | -82.80575 | 21978 ft | 271 kts | 274° |
| 2026-05-09 15:34 | 30.47893 | -82.82756 | 21984 ft | 272 kts | 273° |
| 2026-05-09 15:34 | 30.48078 | -82.84936 | 21984 ft | 272 kts | 273° |
| 2026-05-09 15:34 | 30.48266 | -82.87159 | 21983 ft | 272 kts | 273° |
| 2026-05-09 15:34 | 30.48451 | -82.89352 | 21982 ft | 273 kts | 274° |
| 2026-05-09 15:35 | 30.48636 | -82.91554 | 21978 ft | 274 kts | 274° |
| 2026-05-09 15:35 | 30.48820 | -82.93741 | 21983 ft | 274 kts | 274° |
| 2026-05-09 15:35 | 30.49005 | -82.95946 | 21984 ft | 274 kts | 273° |
| 2026-05-09 15:35 | 30.49187 | -82.98136 | 21986 ft | 274 kts | 273° |
| 2026-05-09 15:36 | 30.49369 | -83.00319 | 21981 ft | 275 kts | 273° |
| 2026-05-09 15:36 | 30.49555 | -83.02548 | 21982 ft | 275 kts | 273° |
| 2026-05-09 15:36 | 30.49738 | -83.04749 | 21979 ft | 275 kts | 273° |
| 2026-05-09 15:36 | 30.49920 | -83.06944 | 21986 ft | 275 kts | 274° |
| 2026-05-09 15:37 | 30.50102 | -83.09140 | 21971 ft | 276 kts | 273° |
| 2026-05-09 15:37 | 30.50284 | -83.11349 | 21971 ft | 276 kts | 273° |
| 2026-05-09 15:37 | 30.50466 | -83.13552 | 21969 ft | 275 kts | 273° |
| 2026-05-09 15:37 | 30.50649 | -83.15776 | 21962 ft | 276 kts | 274° |
| 2026-05-09 15:38 | 30.50830 | -83.17980 | 21956 ft | 276 kts | 274° |
| 2026-05-09 15:38 | 30.51011 | -83.20194 | 21961 ft | 276 kts | 273° |
| 2026-05-09 15:38 | 30.51194 | -83.22423 | 21957 ft | 276 kts | 273° |
| 2026-05-09 15:38 | 30.51373 | -83.24636 | 21980 ft | 282 kts | 274° |
| 2026-05-09 15:39 | 30.51560 | -83.26938 | 21965 ft | 288 kts | 274° |
| 2026-05-09 15:39 | 30.51749 | -83.29255 | 21960 ft | 290 kts | 273° |
| 2026-05-09 15:39 | 30.51937 | -83.31558 | 21977 ft | 289 kts | 273° |
| 2026-05-09 15:39 | 30.52125 | -83.33880 | 21971 ft | 289 kts | 274° |
| 2026-05-09 15:40 | 30.52315 | -83.36214 | 21968 ft | 288 kts | 273° |
| 2026-05-09 15:40 | 30.52503 | -83.38545 | 21969 ft | 289 kts | 273° |
| 2026-05-09 15:40 | 30.52690 | -83.40873 | 21969 ft | 289 kts | 274° |
| 2026-05-09 15:40 | 30.52876 | -83.43192 | 21971 ft | 289 kts | 273° |
| 2026-05-09 15:41 | 30.53063 | -83.45523 | 21976 ft | 289 kts | 273° |
| 2026-05-09 15:41 | 30.53251 | -83.47877 | 21966 ft | 289 kts | 274° |
| 2026-05-09 15:41 | 30.53435 | -83.50190 | 21977 ft | 289 kts | 273° |
| 2026-05-09 15:41 | 30.53622 | -83.52510 | 21972 ft | 289 kts | 274° |
| 2026-05-09 15:42 | 30.53869 | -83.54841 | 21971 ft | 290 kts | 276° |
| 2026-05-09 15:42 | 30.54158 | -83.57190 | 21970 ft | 291 kts | 276° |
| 2026-05-09 15:42 | 30.54440 | -83.59507 | 21975 ft | 291 kts | 276° |
| 2026-05-09 15:42 | 30.54720 | -83.61841 | 21975 ft | 291 kts | 275° |
| 2026-05-09 15:43 | 30.54996 | -83.64170 | 21970 ft | 291 kts | 276° |
| 2026-05-09 15:43 | 30.55272 | -83.66518 | 21978 ft | 291 kts | 275° |
| 2026-05-09 15:43 | 30.55545 | -83.68853 | 21980 ft | 292 kts | 275° |
| 2026-05-09 15:43 | 30.55818 | -83.71206 | 21978 ft | 293 kts | 275° |
| 2026-05-09 15:44 | 30.56093 | -83.73570 | 21990 ft | 293 kts | 274° |
| 2026-05-09 15:44 | 30.56369 | -83.75959 | 21987 ft | 294 kts | 275° |
| 2026-05-09 15:44 | 30.56638 | -83.78295 | 21980 ft | 295 kts | 275° |
| 2026-05-09 15:44 | 30.56913 | -83.80686 | 21985 ft | 295 kts | 275° |
| 2026-05-09 15:45 | 30.57186 | -83.83057 | 21984 ft | 295 kts | 274° |
| 2026-05-09 15:45 | 30.57459 | -83.85448 | 21984 ft | 296 kts | 275° |
| 2026-05-09 15:45 | 30.57729 | -83.87801 | 21981 ft | 296 kts | 275° |
| 2026-05-09 15:45 | 30.58001 | -83.90187 | 21986 ft | 296 kts | 275° |
| 2026-05-09 15:46 | 30.58277 | -83.92603 | 21981 ft | 297 kts | 275° |
| 2026-05-09 15:46 | 30.58546 | -83.94968 | 21979 ft | 297 kts | 274° |
| 2026-05-09 15:46 | 30.58819 | -83.97372 | 21978 ft | 297 kts | 274° |
| 2026-05-09 15:46 | 30.59093 | -83.99789 | 21983 ft | 297 kts | 275° |
| 2026-05-09 15:47 | 30.59363 | -84.02176 | 21988 ft | 297 kts | 275° |
| 2026-05-09 15:47 | 30.59631 | -84.04546 | 21988 ft | 297 kts | 274° |
| 2026-05-09 15:47 | 30.59902 | -84.06947 | 21984 ft | 297 kts | 275° |
| 2026-05-09 15:47 | 30.60176 | -84.09378 | 21987 ft | 297 kts | 275° |
| 2026-05-09 15:48 | 30.60443 | -84.11757 | 21986 ft | 297 kts | 275° |
| 2026-05-09 15:48 | 30.60710 | -84.14133 | 21982 ft | 298 kts | 275° |
| 2026-05-09 15:48 | 30.60982 | -84.16556 | 21988 ft | 298 kts | 274° |
| 2026-05-09 15:48 | 30.61251 | -84.18965 | 21989 ft | 298 kts | 275° |
| 2026-05-09 15:49 | 30.61517 | -84.21345 | 21985 ft | 298 kts | 275° |
| 2026-05-09 15:49 | 30.61783 | -84.23740 | 21991 ft | 298 kts | 275° |
| 2026-05-09 15:49 | 30.62052 | -84.26152 | 21985 ft | 298 kts | 275° |
| 2026-05-09 15:49 | 30.62317 | -84.28536 | 21981 ft | 298 kts | 275° |
| 2026-05-09 15:50 | 30.62585 | -84.30948 | 21993 ft | 298 kts | 275° |
| 2026-05-09 15:50 | 30.62853 | -84.33370 | 21989 ft | 298 kts | 275° |
| 2026-05-09 15:50 | 30.63114 | -84.35738 | 21988 ft | 298 kts | 275° |
| 2026-05-09 15:50 | 30.63381 | -84.38150 | 21986 ft | 298 kts | 275° |
| 2026-05-09 15:51 | 30.63646 | -84.40562 | 21982 ft | 298 kts | 275° |
| 2026-05-09 15:51 | 30.63912 | -84.42983 | 21988 ft | 298 kts | 275° |
| 2026-05-09 15:51 | 30.64178 | -84.45404 | 21984 ft | 298 kts | 275° |
| 2026-05-09 15:51 | 30.64437 | -84.47762 | 21984 ft | 298 kts | 274° |
| 2026-05-09 15:52 | 30.64965 | -84.52597 | 21994 ft | 298 kts | 275° |
| 2026-05-09 15:52 | 30.65230 | -84.55029 | 21991 ft | 299 kts | 275° |
| 2026-05-09 15:52 | 30.65491 | -84.57426 | 21984 ft | 299 kts | 275° |
| 2026-05-09 15:53 | 30.65754 | -84.59842 | 21995 ft | 299 kts | 274° |
| 2026-05-09 15:53 | 30.66016 | -84.62264 | 21987 ft | 299 kts | 275° |
| 2026-05-09 15:53 | 30.66278 | -84.64685 | 21995 ft | 299 kts | 274° |
| 2026-05-09 15:53 | 30.66530 | -84.67020 | 22001 ft | 299 kts | 274° |
| 2026-05-09 15:54 | 30.66793 | -84.69451 | 22001 ft | 300 kts | 274° |
| 2026-05-09 15:54 | 30.67053 | -84.71872 | 21996 ft | 300 kts | 274° |
| 2026-05-09 15:54 | 30.67313 | -84.74288 | 22001 ft | 300 kts | 274° |
| 2026-05-09 15:54 | 30.67574 | -84.76720 | 21997 ft | 301 kts | 274° |
| 2026-05-09 15:55 | 30.67833 | -84.79141 | 21999 ft | 301 kts | 273° |
| 2026-05-09 15:55 | 30.68092 | -84.81566 | 21999 ft | 300 kts | 274° |
| 2026-05-09 15:55 | 30.68352 | -84.83994 | 21989 ft | 300 kts | 274° |
| 2026-05-09 15:55 | 30.68613 | -84.86443 | 21995 ft | 300 kts | 273° |
| 2026-05-09 15:56 | 30.68868 | -84.88847 | 21999 ft | 299 kts | 274° |
| 2026-05-09 15:56 | 30.69124 | -84.91260 | 22001 ft | 299 kts | 274° |
| 2026-05-09 15:56 | 30.69380 | -84.93677 | 21998 ft | 299 kts | 274° |
| 2026-05-09 15:56 | 30.69634 | -84.96082 | 21997 ft | 299 kts | 274° |
| 2026-05-09 15:57 | 30.69890 | -84.98511 | 22002 ft | 299 kts | 274° |
| 2026-05-09 15:57 | 30.70148 | -85.00956 | 21996 ft | 299 kts | 274° |
| 2026-05-09 15:57 | 30.70399 | -85.03344 | 21998 ft | 299 kts | 274° |
| 2026-05-09 15:57 | 30.70654 | -85.05776 | 21999 ft | 299 kts | 274° |
| 2026-05-09 15:58 | 30.70910 | -85.08215 | 22002 ft | 299 kts | 274° |
| 2026-05-09 15:58 | 30.71163 | -85.10637 | 22001 ft | 300 kts | 274° |
| 2026-05-09 15:58 | 30.71413 | -85.13031 | 21997 ft | 301 kts | 274° |
| 2026-05-09 15:58 | 30.71668 | -85.15479 | 22000 ft | 301 kts | 274° |
| 2026-05-09 15:59 | 30.71920 | -85.17901 | 22000 ft | 301 kts | 274° |
| 2026-05-09 15:59 | 30.72174 | -85.20348 | 21998 ft | 302 kts | 274° |
| 2026-05-09 15:59 | 30.72424 | -85.22756 | 21995 ft | 302 kts | 274° |
| 2026-05-09 15:59 | 30.72680 | -85.25231 | 21995 ft | 302 kts | 274° |
| 2026-05-09 16:00 | 30.72931 | -85.27658 | 21994 ft | 302 kts | 274° |
| 2026-05-09 16:00 | 30.73017 | -85.28493 | 21996 ft | 302 kts | 274° |
| 2026-05-09 16:00 | 30.73433 | -85.32536 | 22001 ft | 301 kts | 274° |
| 2026-05-09 16:00 | 30.73684 | -85.34979 | 21995 ft | 301 kts | 274° |
| 2026-05-09 16:01 | 30.73935 | -85.37426 | 21984 ft | 301 kts | 274° |
| 2026-05-09 16:01 | 30.74181 | -85.39838 | 21994 ft | 301 kts | 274° |
| 2026-05-09 16:01 | 30.74431 | -85.42287 | 21993 ft | 301 kts | 274° |
| 2026-05-09 16:01 | 30.74679 | -85.44720 | 21992 ft | 301 kts | 274° |
| 2026-05-09 16:02 | 30.74929 | -85.47179 | 21993 ft | 301 kts | 274° |
| 2026-05-09 16:02 | 30.75419 | -85.52010 | 21989 ft | 301 kts | 274° |
| 2026-05-09 16:02 | 30.75669 | -85.54478 | 21990 ft | 301 kts | 274° |
| 2026-05-09 16:03 | 30.75914 | -85.56914 | 21983 ft | 301 kts | 274° |
| 2026-05-09 16:03 | 30.76159 | -85.59341 | 21985 ft | 301 kts | 274° |
| 2026-05-09 16:03 | 30.76401 | -85.61751 | 21992 ft | 300 kts | 274° |
| 2026-05-09 16:03 | 30.76647 | -85.64204 | 21991 ft | 299 kts | 274° |
| 2026-05-09 16:04 | 30.76883 | -85.66560 | 21989 ft | 299 kts | 274° |
| 2026-05-09 16:04 | 30.77125 | -85.68977 | 21997 ft | 299 kts | 273° |
| 2026-05-09 16:04 | 30.77366 | -85.71395 | 22000 ft | 298 kts | 273° |
| 2026-05-09 16:04 | 30.77604 | -85.73791 | 21998 ft | 298 kts | 273° |
| 2026-05-09 16:05 | 30.77840 | -85.76165 | 21997 ft | 298 kts | 274° |
| 2026-05-09 16:05 | 30.78077 | -85.78560 | 22002 ft | 298 kts | 274° |
| 2026-05-09 16:05 | 30.78315 | -85.80959 | 22000 ft | 298 kts | 274° |
| 2026-05-09 16:05 | 30.78549 | -85.83324 | 21993 ft | 297 kts | 273° |
| 2026-05-09 16:06 | 30.78784 | -85.85708 | 22005 ft | 297 kts | 274° |
| 2026-05-09 16:06 | 30.79019 | -85.88093 | 22015 ft | 296 kts | 274° |
| 2026-05-09 16:06 | 30.79253 | -85.90473 | 21987 ft | 296 kts | 274° |
| 2026-05-09 16:06 | 30.79485 | -85.92842 | 21988 ft | 295 kts | 274° |
| 2026-05-09 16:07 | 30.79716 | -85.95203 | 21987 ft | 294 kts | 274° |
| 2026-05-09 16:07 | 30.79943 | -85.97527 | 21989 ft | 292 kts | 273° |
| 2026-05-09 16:07 | 30.80173 | -85.99883 | 21979 ft | 292 kts | 274° |
| 2026-05-09 16:07 | 30.80401 | -86.02234 | 21978 ft | 291 kts | 273° |
| 2026-05-09 16:08 | 30.80624 | -86.04537 | 21979 ft | 290 kts | 273° |
| 2026-05-09 16:08 | 30.80849 | -86.06855 | 21983 ft | 288 kts | 273° |
| 2026-05-09 16:08 | 30.81073 | -86.09174 | 21983 ft | 287 kts | 273° |
| 2026-05-09 16:08 | 30.81293 | -86.11462 | 21992 ft | 288 kts | 274° |
| 2026-05-09 16:09 | 30.81517 | -86.13813 | 21988 ft | 292 kts | 273° |
| 2026-05-09 16:09 | 30.81655 | -86.16198 | 21981 ft | 294 kts | 270° |
| 2026-05-09 16:09 | 30.81712 | -86.18619 | 21989 ft | 295 kts | 269° |
| 2026-05-09 16:09 | 30.81736 | -86.21032 | 21986 ft | 297 kts | 268° |
| 2026-05-09 16:10 | 30.81759 | -86.23445 | 21984 ft | 297 kts | 269° |
| 2026-05-09 16:10 | 30.81792 | -86.25845 | 21980 ft | 298 kts | 269° |
| 2026-05-09 16:10 | 30.81833 | -86.28278 | 21990 ft | 297 kts | 269° |
| 2026-05-09 16:10 | 30.81878 | -86.30694 | 21986 ft | 297 kts | 269° |
| 2026-05-09 16:11 | 30.81926 | -86.33117 | 21993 ft | 296 kts | 269° |
| 2026-05-09 16:11 | 30.81976 | -86.35541 | 21996 ft | 295 kts | 269° |
| 2026-05-09 16:11 | 30.82026 | -86.37938 | 21998 ft | 295 kts | 269° |
| 2026-05-09 16:11 | 30.82077 | -86.40337 | 21998 ft | 295 kts | 269° |
| 2026-05-09 16:12 | 30.82128 | -86.42736 | 21994 ft | 295 kts | 269° |
| 2026-05-09 16:12 | 30.82179 | -86.45150 | 21991 ft | 295 kts | 270° |
| 2026-05-09 16:12 | 30.82230 | -86.47544 | 21993 ft | 294 kts | 269° |
| 2026-05-09 16:12 | 30.82280 | -86.49934 | 22000 ft | 293 kts | 270° |
| 2026-05-09 16:13 | 30.82331 | -86.52336 | 21991 ft | 292 kts | 269° |
| 2026-05-09 16:13 | 30.82380 | -86.54706 | 21996 ft | 291 kts | 270° |
| 2026-05-09 16:13 | 30.82429 | -86.57084 | 22001 ft | 290 kts | 269° |
| 2026-05-09 16:13 | 30.82476 | -86.59428 | 21998 ft | 289 kts | 270° |
| 2026-05-09 16:14 | 30.82524 | -86.61776 | 21993 ft | 288 kts | 270° |
| 2026-05-09 16:14 | 30.82571 | -86.64130 | 21992 ft | 288 kts | 269° |
| 2026-05-09 16:14 | 30.82633 | -86.66445 | 22006 ft | 288 kts | 271° |
| 2026-05-09 16:14 | 30.82818 | -86.68793 | 22004 ft | 289 kts | 274° |
| 2026-05-09 16:15 | 30.83132 | -86.71140 | 22002 ft | 289 kts | 276° |
| 2026-05-09 16:15 | 30.83472 | -86.73450 | 21983 ft | 289 kts | 277° |
| 2026-05-09 16:15 | 30.83809 | -86.75748 | 21998 ft | 288 kts | 276° |
| 2026-05-09 16:15 | 30.84149 | -86.78071 | 21994 ft | 287 kts | 276° |
| 2026-05-09 16:16 | 30.84486 | -86.80363 | 21981 ft | 286 kts | 277° |
| 2026-05-09 16:16 | 30.84825 | -86.82673 | 21989 ft | 284 kts | 276° |
| 2026-05-09 16:16 | 30.85161 | -86.84966 | 21984 ft | 283 kts | 276° |
| 2026-05-09 16:16 | 30.85491 | -86.87208 | 21994 ft | 283 kts | 276° |
| 2026-05-09 16:17 | 30.85822 | -86.89475 | 22009 ft | 281 kts | 277° |
| 2026-05-09 16:17 | 30.86149 | -86.91717 | 21976 ft | 281 kts | 277° |
| 2026-05-09 16:17 | 30.86479 | -86.93973 | 22000 ft | 279 kts | 277° |
| 2026-05-09 16:17 | 30.86807 | -86.96214 | 21985 ft | 278 kts | 276° |
| 2026-05-09 16:18 | 30.87130 | -86.98428 | 21985 ft | 276 kts | 277° |
| 2026-05-09 16:18 | 30.87453 | -87.00655 | 21989 ft | 276 kts | 277° |
| 2026-05-09 16:18 | 30.87774 | -87.02861 | 21983 ft | 275 kts | 277° |
| 2026-05-09 16:18 | 30.88096 | -87.05081 | 21995 ft | 274 kts | 276° |
| 2026-05-09 16:19 | 30.88413 | -87.07262 | 21979 ft | 274 kts | 277° |
| 2026-05-09 16:19 | 30.88731 | -87.09462 | 21998 ft | 273 kts | 276° |
| 2026-05-09 16:19 | 30.89050 | -87.11670 | 21982 ft | 272 kts | 276° |
| 2026-05-09 16:19 | 30.89364 | -87.13841 | 21977 ft | 271 kts | 276° |
| 2026-05-09 16:20 | 30.89677 | -87.16010 | 21979 ft | 270 kts | 276° |
| 2026-05-09 16:20 | 30.89993 | -87.18204 | 21973 ft | 269 kts | 276° |
| 2026-05-09 16:20 | 30.90299 | -87.20328 | 21979 ft | 268 kts | 276° |
| 2026-05-09 16:20 | 30.90608 | -87.22481 | 21977 ft | 268 kts | 276° |
| 2026-05-09 16:21 | 30.90916 | -87.24622 | 21977 ft | 267 kts | 276° |
| 2026-05-09 16:21 | 30.91218 | -87.26734 | 21978 ft | 267 kts | 276° |
| 2026-05-09 16:21 | 30.91524 | -87.28869 | 21984 ft | 267 kts | 276° |
| 2026-05-09 16:21 | 30.91830 | -87.31006 | 21979 ft | 267 kts | 276° |
| 2026-05-09 16:22 | 30.92133 | -87.33117 | 21968 ft | 266 kts | 277° |
| 2026-05-09 16:22 | 30.92435 | -87.35244 | 21959 ft | 265 kts | 277° |
| 2026-05-09 16:22 | 30.92740 | -87.37373 | 21963 ft | 264 kts | 277° |
| 2026-05-09 16:22 | 30.93035 | -87.39450 | 21969 ft | 263 kts | 277° |
| 2026-05-09 16:23 | 30.93333 | -87.41547 | 21964 ft | 261 kts | 277° |
| 2026-05-09 16:23 | 30.93627 | -87.43610 | 21964 ft | 259 kts | 276° |
| 2026-05-09 16:23 | 30.93922 | -87.45690 | 21964 ft | 258 kts | 275° |
| 2026-05-09 16:23 | 30.94209 | -87.47713 | 21958 ft | 255 kts | 276° |
| 2026-05-09 16:24 | 30.94497 | -87.49745 | 21952 ft | 253 kts | 276° |
| 2026-05-09 16:24 | 30.94783 | -87.51771 | 21963 ft | 251 kts | 276° |
| 2026-05-09 16:24 | 30.95062 | -87.53751 | 21954 ft | 248 kts | 276° |
| 2026-05-09 16:24 | 30.95340 | -87.55721 | 21966 ft | 246 kts | 276° |
| 2026-05-09 16:25 | 30.95616 | -87.57680 | 21959 ft | 243 kts | 276° |
| 2026-05-09 16:25 | 30.95888 | -87.59609 | 21952 ft | 240 kts | 276° |
| 2026-05-09 16:25 | 30.96155 | -87.61505 | 21944 ft | 237 kts | 277° |
| 2026-05-09 16:25 | 30.96417 | -87.63373 | 21954 ft | 233 kts | 276° |
| 2026-05-09 16:26 | 30.96676 | -87.65224 | 21951 ft | 229 kts | 276° |
| 2026-05-09 16:26 | 30.96931 | -87.67044 | 21964 ft | 226 kts | 276° |
| 2026-05-09 16:26 | 30.97186 | -87.68867 | 21966 ft | 223 kts | 276° |
| 2026-05-09 16:26 | 30.97436 | -87.70651 | 21960 ft | 220 kts | 276° |
| 2026-05-09 16:27 | 30.97680 | -87.72401 | 21967 ft | 217 kts | 275° |
| 2026-05-09 16:27 | 30.97920 | -87.74126 | 21958 ft | 214 kts | 276° |
| 2026-05-09 16:27 | 30.98155 | -87.75814 | 21963 ft | 210 kts | 276° |
| 2026-05-09 16:27 | 30.98387 | -87.77479 | 21958 ft | 206 kts | 275° |
| 2026-05-09 16:28 | 30.98614 | -87.79112 | 21963 ft | 202 kts | 275° |
| 2026-05-09 16:28 | 30.98837 | -87.80712 | 21957 ft | 197 kts | 275° |
| 2026-05-09 16:28 | 30.99051 | -87.82261 | 21957 ft | 193 kts | 275° |
| 2026-05-09 16:28 | 30.99262 | -87.83786 | 21956 ft | 188 kts | 275° |
| 2026-05-09 16:29 | 30.99465 | -87.85265 | 21957 ft | 183 kts | 275° |
| 2026-05-09 16:29 | 30.99663 | -87.86701 | 21959 ft | 177 kts | 275° |
| 2026-05-09 16:29 | 30.99855 | -87.88102 | 21954 ft | 171 kts | 275° |
| 2026-05-09 16:29 | 31.00040 | -87.89450 | 21951 ft | 164 kts | 274° |
| 2026-05-09 16:30 | 31.00216 | -87.90726 | 21944 ft | 155 kts | 274° |
| 2026-05-09 16:30 | 31.00379 | -87.91915 | 21938 ft | 145 kts | 274° |
| 2026-05-09 16:30 | 31.00533 | -87.93029 | 21929 ft | 131 kts | 274° |
| 2026-05-09 16:30 | 31.00679 | -87.93993 | 21860 ft | 111 kts | 274° |
| 2026-05-09 16:31 | 31.01207 | -87.94497 | 20144 ft | 232 kts | 47° |
| 2026-05-09 16:31 | 31.00408 | -87.93753 | 16742 ft | 203 kts | 220° |
| 2026-05-09 16:31 | 31.00584 | -87.94395 | 14307 ft | 262 kts | 59° |
| 2026-05-09 16:31 | 30.99921 | -87.93199 | 12513 ft | 180 kts | 214° |
| 2026-05-09 16:32 | 31.00312 | -87.93506 | 9741 ft | 258 kts | 66° |
| 2026-05-09 16:32 | 31.00020 | -87.92527 | 10003 ft | 180 kts | 187° |
| 2026-05-09 16:32 | 31.00462 | -87.92326 | 8663 ft | 222 kts | 129° |
| 2026-05-09 16:32 | 31.00317 | -87.92703 | 7189 ft | 258 kts | 15° |
| 2026-05-09 16:33 | 31.00049 | -87.91951 | 7151 ft | 219 kts | 267° |
| 2026-05-09 16:33 | 31.00768 | -87.91634 | 7238 ft | 204 kts | 144° |
| 2026-05-09 16:33 | 31.00926 | -87.92125 | 5996 ft | 224 kts | 35° |
| 2026-05-09 16:33 | 31.00555 | -87.91800 | 4900 ft | 233 kts | 288° |
| 2026-05-09 16:34 | 31.00947 | -87.91644 | 6464 ft | 177 kts | 146° |
| 2026-05-09 16:34 | 31.01136 | -87.92353 | 5913 ft | 175 kts | 50° |
| 2026-05-09 16:34 | 31.00882 | -87.92221 | 4258 ft | 231 kts | 274° |
| 2026-05-09 16:34 | 31.01240 | -87.91958 | 4898 ft | 225 kts | 177° |
| 2026-05-09 16:35 | 31.01190 | -87.92603 | 5347 ft | 178 kts | 52° |
| 2026-05-09 16:35 | 31.00636 | -87.92686 | 4126 ft | 200 kts | 301° |
| 2026-05-09 16:35 | 31.00716 | -87.92226 | 3178 ft | 252 kts | 202° |
| 2026-05-09 16:35 | 31.00888 | -87.92518 | 3768 ft | 229 kts | 104° |
| 2026-05-09 16:36 | 31.00308 | -87.92721 | 4071 ft | 172 kts | 354° |
| 2026-05-09 16:36 | 31.00076 | -87.92123 | 2215 ft | 241 kts | 92° |
| 2026-05-09 16:37 | 30.99538 | -87.91983 | 2893 ft | 170 kts | 333° |
| 2026-05-09 16:37 | 30.99291 | -87.91264 | 2536 ft | 168 kts | 255° |
| 2026-05-09 16:37 | 30.99523 | -87.90837 | 1495 ft | 227 kts | 147° |
| 2026-05-09 16:37 | 30.99584 | -87.90962 | 871 ft | 255 kts | 73° |
| 2026-05-09 16:38 | 30.99282 | -87.90820 | 1418 ft | 215 kts | 356° |
| 2026-05-09 16:38 | 30.99744 | -87.90222 | 1080 ft | 216 kts | 82° |